Item Display Status Serial CT Sensor

Mooring Depth: 1 m

 

Deployed Sensor

  • Serial Number: 8771
  • NDBC Property Number: 35134
  • Start Date: 4/17/2020 (12:10:58 Z)
  • End Date: Currently Active
Water Temperature [°C]     6 entries per hour
Showing data from 9/20/2021 (05:00:00 Z) to 9/19/2021 (00:00:01 Z)
Previous Next [ Day | 3-Days | 7-Days ]
First Last
Prev [ Day | 3-Days | 7-Days ] Next
First Last

Start Time:     :
End Time:     :     
Time (in GMT) :00 :50 :40 :30 :20 :10
Previous Next [ Day | 3-Days | 7-Days ]
First Last
Prev [ Day | 3-Days | 7-Days ] Next
First Last


123 => good data
MM => data is determined as missing
-- => data not received/configured
Back to Top Back to Top
9/20/2021 05:00 to 4:10 21.567 21.567 21.562 21.550 21.546 21.552
9/20/2021 04:00 to 3:10 21.549 21.544 -- -- 21.551 21.543
9/20/2021 03:00 to 2:10 21.557 21.559 21.559 21.558 21.562 21.566
9/20/2021 02:00 to 1:10 21.563 21.568 21.570 21.574 21.575 21.586
9/20/2021 01:00 to 0:10 21.578 21.584 21.592 21.604 21.603 21.610
9/20/2021 00:00 to 23:10 21.608 21.613 21.621 21.623 21.636 21.641
9/19/2021 23:00 to 22:10 21.636 21.657 21.651 21.667 21.656 21.674
9/19/2021 22:00 to 21:10 21.674 21.693 21.696 21.697 21.689 21.700
9/19/2021 21:00 to 20:10 21.691 21.705 21.707 21.708 21.706 21.681
9/19/2021 20:00 to 19:10 21.688 21.699 21.682 21.670 21.655 21.684
9/19/2021 19:00 to 18:10 21.663 21.663 21.661 21.659 21.647 21.645
9/19/2021 18:00 to 17:10 21.620 21.631 21.621 21.619 21.599 21.597
9/19/2021 17:00 to 16:10 21.581 21.574 21.571 21.556 21.555 21.551
9/19/2021 16:00 to 15:10 21.553 21.552 21.552 21.545 21.537 21.536
9/19/2021 15:00 to 14:10 21.533 21.541 21.533 21.531 21.527 21.524
9/19/2021 14:00 to 13:10 21.523 21.524 21.520 21.521 21.521 21.522
9/19/2021 13:00 to 12:10 21.523 21.524 21.520 21.520 21.519 21.525
9/19/2021 12:00 to 11:10 21.526 21.530 21.527 21.534 21.531 21.531
9/19/2021 11:00 to 10:10 21.537 21.537 21.540 21.545 21.547 21.550
9/19/2021 10:00 to 9:10 21.550 21.549 21.546 21.554 21.555 21.555
9/19/2021 09:00 to 8:10 21.560 21.559 21.564 21.570 21.570 21.576
9/19/2021 08:00 to 7:10 21.572 21.575 21.573 21.576 21.576 21.577
9/19/2021 07:00 to 6:10 21.581 21.583 21.586 21.593 21.595 21.596
9/19/2021 06:00 to 5:10 21.600 21.601 21.602 21.607 21.604 21.603
9/19/2021 05:00 to 4:10 21.611 21.615 21.620 21.625 21.629 21.634
9/19/2021 04:00 to 3:10 21.638 21.643 21.645 21.651 21.657 21.663
9/19/2021 03:00 to 2:10 21.669 21.676 21.673 21.683 21.679 21.685
9/19/2021 02:00 to 1:10 21.686 21.683 21.682 21.688 21.694 21.703
9/19/2021 01:00 to 0:10 21.706 21.710 21.717 21.724 21.724 21.735

 

 

 

Conductivity [S/m]     6 entries per hour
Showing data from 8/12/2020 (01:50:00 Z) to 8/11/2020 (00:00:01 Z)
Previous Next [ Day | 3-Days | 7-Days ]
First Last
Prev [ Day | 3-Days | 7-Days ] Next
First Last

Start Time:     :
End Time:     :     
Time (in GMT) :00 :50 :40 :30 :20 :10
Previous Next [ Day | 3-Days | 7-Days ]
First Last
Prev [ Day | 3-Days | 7-Days ] Next
First Last


123 => good data
MM => data is determined as missing
-- => data not received/configured
Back to Top Back to Top
8/12/2020 02:00 to 1:10 -- 5.11092 5.11113 5.11032 5.11122 5.11132
8/12/2020 01:00 to 0:10 5.11180 5.11119 5.11121 5.10955 5.10968 5.10876
8/12/2020 00:00 to 23:10 5.10608 5.10971 5.11102 5.10946 5.10626 5.10608
8/11/2020 23:00 to 22:10 5.10644 5.10597 5.10838 5.10682 5.10675 5.10814
8/11/2020 22:00 to 21:10 5.10669 5.10958 5.10862 5.10848 5.10734 5.10566
8/11/2020 21:00 to 20:10 5.10696 5.10780 5.10537 5.10485 5.10535 5.10393
8/11/2020 20:00 to 19:10 5.10512 5.10314 5.09998 5.09796 5.09821 5.09569
8/11/2020 19:00 to 18:10 5.09261 5.09346 5.09142 5.08913 5.08652 5.08215
8/11/2020 18:00 to 17:10 5.08281 5.07829 5.07660 5.07747 5.07406 5.07374
8/11/2020 17:00 to 16:10 5.07225 5.06998 5.06715 5.06618 5.06447 5.06302
8/11/2020 16:00 to 15:10 5.06328 5.06326 5.06110 5.06033 5.05980 5.06056
8/11/2020 15:00 to 14:10 5.05904 5.05848 5.05725 5.05751 5.05528 5.05653
8/11/2020 14:00 to 13:10 5.05555 5.05650 5.05716 5.05573 5.05735 5.05573
8/11/2020 13:00 to 12:10 5.05477 5.05357 5.05333 5.05358 5.05185 5.05280
8/11/2020 12:00 to 11:10 5.05293 5.04872 5.05052 5.04909 5.05087 5.05072
8/11/2020 11:00 to 10:10 5.04844 5.04745 5.04874 5.05135 5.05110 5.04961
8/11/2020 10:00 to 9:10 5.04993 5.05282 5.05119 5.05208 5.05145 5.05138
8/11/2020 09:00 to 8:10 5.04980 5.05099 5.04855 5.04777 5.04821 5.04924
8/11/2020 08:00 to 7:10 5.04803 5.04925 5.04882 5.04775 5.04573 5.04568
8/11/2020 07:00 to 6:10 5.04606 5.04560 5.04502 5.04524 5.04367 5.04291
8/11/2020 06:00 to 5:10 5.04184 5.04071 5.04096 5.04062 5.04094 5.04066
8/11/2020 05:00 to 4:10 5.04113 5.04005 5.04091 5.04035 5.03959 5.03942
8/11/2020 04:00 to 3:10 5.03943 5.03823 5.03881 5.03939 5.03938 5.03980
8/11/2020 03:00 to 2:10 5.03920 5.03989 5.04004 5.04105 5.04075 5.04131
8/11/2020 02:00 to 1:10 5.04061 5.04127 5.04075 5.04073 5.04123 5.04292
8/11/2020 01:00 to 0:10 5.04415 5.04285 5.04424 5.04501 5.04588 5.04606

 

 

 

Salinity [psu]     6 entries per hour
Showing data from 8/12/2020 (01:50:00 Z) to 8/11/2020 (00:00:01 Z)
Previous Next [ Day | 3-Days | 7-Days ]
First Last
Prev [ Day | 3-Days | 7-Days ] Next
First Last

Start Time:     :
End Time:     :     
Time (in GMT) :00 :50 :40 :30 :20 :10
Previous Next [ Day | 3-Days | 7-Days ]
First Last
Prev [ Day | 3-Days | 7-Days ] Next
First Last


123 => good data
MM => data is determined as missing
-- => data not received/configured
Back to Top Back to Top
8/12/2020 02:00 to 1:10 -- 35.31 35.31 35.31 35.31 35.30
8/12/2020 01:00 to 0:10 35.30 35.30 35.30 35.30 35.30 35.30
8/12/2020 00:00 to 23:10 35.29 35.29 35.30 35.30 35.29 35.28
8/11/2020 23:00 to 22:10 35.29 35.28 35.29 35.28 35.28 35.29
8/11/2020 22:00 to 21:10 35.28 35.28 35.28 35.28 35.28 35.28
8/11/2020 21:00 to 20:10 35.28 35.28 35.27 35.27 35.27 35.27
8/11/2020 20:00 to 19:10 35.27 35.27 35.26 35.26 35.26 35.26
8/11/2020 19:00 to 18:10 35.25 35.26 35.25 35.25 35.24 35.24
8/11/2020 18:00 to 17:10 35.24 35.23 35.22 35.23 35.22 35.22
8/11/2020 17:00 to 16:10 35.22 35.22 35.21 35.21 35.21 35.21
8/11/2020 16:00 to 15:10 35.21 35.21 35.20 35.20 35.20 35.20
8/11/2020 15:00 to 14:10 35.20 35.20 35.19 35.19 35.19 35.19
8/11/2020 14:00 to 13:10 35.19 35.19 35.19 35.19 35.20 35.19
8/11/2020 13:00 to 12:10 35.19 35.19 35.19 35.18 35.17 35.18
8/11/2020 12:00 to 11:10 35.18 35.17 35.18 35.17 35.18 35.18
8/11/2020 11:00 to 10:10 35.17 35.17 35.17 35.17 35.17 35.17
8/11/2020 10:00 to 9:10 35.17 35.18 35.17 35.17 35.17 35.17
8/11/2020 09:00 to 8:10 35.17 35.17 35.16 35.16 35.16 35.16
8/11/2020 08:00 to 7:10 35.16 35.16 35.16 35.16 35.15 35.15
8/11/2020 07:00 to 6:10 35.15 35.15 35.15 35.15 35.15 35.15
8/11/2020 06:00 to 5:10 35.14 35.14 35.14 35.14 35.14 35.14
8/11/2020 05:00 to 4:10 35.14 35.13 35.13 35.14 35.13 35.13
8/11/2020 04:00 to 3:10 35.13 35.13 35.13 35.13 35.13 35.13
8/11/2020 03:00 to 2:10 35.13 35.13 35.13 35.13 35.13 35.13
8/11/2020 02:00 to 1:10 35.13 35.14 35.13 35.13 35.13 35.13
8/11/2020 01:00 to 0:10 35.13 35.13 35.13 35.13 35.13 35.13